createdAt,value
2022-08-19T00:01:02.084Z,25.30
2022-08-19T00:06:05.871Z,25.13
2022-08-19T00:11:09.415Z,25.58
2022-08-19T00:16:26.090Z,25.67
2022-08-19T00:21:30.025Z,25.46
2022-08-19T00:26:34.197Z,24.62
2022-08-19T00:31:39.296Z,24.70
2022-08-19T00:36:43.512Z,23.70
2022-08-19T00:41:48.432Z,24.17
2022-08-19T00:46:57.826Z,24.67
2022-08-19T00:52:05.319Z,24.08
2022-08-19T00:57:13.634Z,23.84
2022-08-19T01:02:18.770Z,24.72
2022-08-19T01:07:22.177Z,24.53
2022-08-19T01:12:27.363Z,25.05
2022-08-19T01:17:32.198Z,25.44
2022-08-19T01:22:40.100Z,25.42
2022-08-19T01:27:45.527Z,25.30
2022-08-19T01:32:49.084Z,24.99
2022-08-19T01:37:56.554Z,24.29
2022-08-19T01:43:00.478Z,24.58
2022-08-19T01:48:04.284Z,24.20
2022-08-19T01:53:12.334Z,24.52
2022-08-19T01:58:20.068Z,25.03
2022-08-19T02:03:23.711Z,24.26
2022-08-19T02:08:29.233Z,24.76
2022-08-19T02:13:34.518Z,25.12
2022-08-19T02:18:38.719Z,24.22
2022-08-19T02:23:43.510Z,24.57
2022-08-19T02:28:47.071Z,24.92
2022-08-19T02:33:51.491Z,24.21
2022-08-19T02:38:56.904Z,24.49
2022-08-19T02:44:26.750Z,24.27
2022-08-19T02:49:26.351Z,23.84
2022-08-19T02:54:31.215Z,24.44
2022-08-19T02:59:35.836Z,24.92
2022-08-19T03:04:39.343Z,24.32
2022-08-19T03:09:44.411Z,24.30
2022-08-19T03:14:47.879Z,24.74
2022-08-19T03:19:51.363Z,24.04
2022-08-19T03:24:56.151Z,24.93
2022-08-19T03:30:00.293Z,25.23
2022-08-19T03:35:04.812Z,24.98
2022-08-19T03:40:14.486Z,25.12
2022-08-19T03:45:20.488Z,25.25
2022-08-19T03:50:25.008Z,25.29
2022-08-19T03:55:30.090Z,25.16
2022-08-19T04:00:34.294Z,24.91
2022-08-19T04:05:38.582Z,24.56
2022-08-19T04:10:43.469Z,24.27
2022-08-19T04:15:48.183Z,24.28
2022-08-19T04:20:51.688Z,24.35
2022-08-19T04:25:57.003Z,24.36
2022-08-19T04:31:00.547Z,24.51
2022-08-19T04:36:04.472Z,24.24
2022-08-19T04:41:26.879Z,23.70
2022-08-19T04:46:39.827Z,23.93
2022-08-19T04:51:45.639Z,23.91
2022-08-19T04:56:51.831Z,24.33
2022-08-19T05:01:55.278Z,24.42
2022-08-19T05:07:01.087Z,24.42
2022-08-19T05:12:07.578Z,23.80
2022-08-19T05:17:27.046Z,23.53
2022-08-19T05:22:36.700Z,23.99
2022-08-19T05:27:42.237Z,24.17
2022-08-19T05:32:45.779Z,23.34
2022-08-19T05:37:49.313Z,23.50
2022-08-19T05:42:59.777Z,24.15
2022-08-19T05:48:03.387Z,23.89
2022-08-19T05:53:07.114Z,24.16
2022-08-19T05:58:12.248Z,23.87
2022-08-19T06:03:15.719Z,23.18
2022-08-19T06:08:19.275Z,23.47
2022-08-19T06:13:24.773Z,23.39
2022-08-19T06:18:28.880Z,24.26
2022-08-19T06:23:32.521Z,23.35
2022-08-19T06:28:37.411Z,24.73
2022-08-19T06:33:40.914Z,24.38
2022-08-19T06:38:45.211Z,24.50
2022-08-19T06:43:53.979Z,23.72
2022-08-19T06:49:00.086Z,24.35
2022-08-19T06:54:05.626Z,23.61
2022-08-19T06:59:28.426Z,24.40
2022-08-19T07:04:33.562Z,24.37
2022-08-19T07:09:38.408Z,23.92
2022-08-19T07:14:44.180Z,24.78
2022-08-19T07:19:47.711Z,24.40
2022-08-19T07:24:52.550Z,24.33
2022-08-19T07:29:59.662Z,25.23
2022-08-19T07:35:04.313Z,24.42
2022-08-19T07:40:09.266Z,24.63
2022-08-19T07:45:14.209Z,25.88
2022-08-19T07:50:19.324Z,25.50
2022-08-19T07:55:42.781Z,25.77
2022-08-19T08:00:50.750Z,25.82
2022-08-19T08:06:11.709Z,25.51
2022-08-19T08:11:15.942Z,25.89
2022-08-19T08:16:22.423Z,26.64
2022-08-19T08:21:25.895Z,25.78
2022-08-19T08:26:29.592Z,25.51
2022-08-19T08:31:39.450Z,25.73
2022-08-19T08:36:46.103Z,25.06
2022-08-19T08:42:09.867Z,26.98
2022-08-19T08:47:23.463Z,27.30
2022-08-19T08:52:32.217Z,27.57
2022-08-19T08:57:42.471Z,26.39
2022-08-19T09:02:51.010Z,27.18
2022-08-19T09:07:59.799Z,25.38
2022-08-19T09:13:10.298Z,26.62
2022-08-19T09:18:19.149Z,26.32
2022-08-19T09:23:26.680Z,27.04
2022-08-19T09:28:32.448Z,27.65
2022-08-19T09:33:37.564Z,26.43
2022-08-19T09:38:43.585Z,27.25
2022-08-19T09:43:49.151Z,28.19
2022-08-19T09:48:54.618Z,28.80
2022-08-19T09:54:02.261Z,28.99
2022-08-19T09:59:08.545Z,29.49
2022-08-19T10:04:14.636Z,28.50
2022-08-19T10:09:33.979Z,29.66
2022-08-19T10:14:38.389Z,29.54
2022-08-19T10:19:55.218Z,30.12
2022-08-19T10:24:59.281Z,30.70
2022-08-19T10:30:04.411Z,29.49
2022-08-19T10:35:16.211Z,30.32
2022-08-19T10:40:25.562Z,30.66
2022-08-19T10:45:29.058Z,29.44
2022-08-19T10:50:48.342Z,29.96
2022-08-19T10:56:09.610Z,29.73
2022-08-19T11:01:13.094Z,31.29
2022-08-19T11:06:18.443Z,31.50
2022-08-19T11:11:22.361Z,31.48
2022-08-19T11:16:28.639Z,31.64
2022-08-19T11:21:36.044Z,31.53
2022-08-19T11:26:40.662Z,29.88
2022-08-19T11:31:45.857Z,31.74
2022-08-19T11:36:52.311Z,31.84
2022-08-19T11:41:56.063Z,32.35
2022-08-19T11:47:09.229Z,31.85
2022-08-19T11:52:14.349Z,32.14
2022-08-19T11:57:17.853Z,32.31
2022-08-19T12:02:22.569Z,33.00
2022-08-19T12:07:27.509Z,33.48
2022-08-19T12:12:30.945Z,33.18
2022-08-19T12:17:34.622Z,32.06
2022-08-19T12:22:40.226Z,33.72
2022-08-19T12:27:49.644Z,32.88
2022-08-19T12:32:57.127Z,33.55
2022-08-19T12:38:03.659Z,33.10
2022-08-19T12:43:07.665Z,32.06
2022-08-19T12:48:33.730Z,33.78
2022-08-19T12:53:39.233Z,33.87
2022-08-19T12:58:50.452Z,34.93
2022-08-19T13:03:54.661Z,31.21
2022-08-19T13:08:59.861Z,33.93
2022-08-19T13:14:04.773Z,33.48
2022-08-19T13:19:08.488Z,34.45
2022-08-19T13:24:13.419Z,31.95
2022-08-19T13:29:34.432Z,32.58
2022-08-19T13:34:38.004Z,34.59
2022-08-19T13:39:42.894Z,34.03
2022-08-19T14:12:38.992Z,32.02
2022-08-19T14:22:58.444Z,33.14
2022-08-19T14:28:02.586Z,34.07
2022-08-19T14:33:07.963Z,34.39
2022-08-19T14:38:18.190Z,33.49
2022-08-19T14:43:31.624Z,35.37
2022-08-19T14:48:35.091Z,34.99
2022-08-19T14:53:40.424Z,35.74
2022-08-19T14:58:44.874Z,35.17
2022-08-19T15:03:49.081Z,34.89
2022-08-19T15:08:55.341Z,35.34
2022-08-19T15:13:58.951Z,34.30
2022-08-19T15:19:02.435Z,35.01
2022-08-19T15:24:08.067Z,34.63
2022-08-19T15:29:13.922Z,34.96
2022-08-19T15:34:17.782Z,35.56
2022-08-19T15:39:22.662Z,32.55
2022-08-19T15:44:26.090Z,32.65
2022-08-19T15:49:29.562Z,33.27
2022-08-19T15:54:35.009Z,33.95
2022-08-19T15:59:56.959Z,34.86
2022-08-19T16:05:23.299Z,34.03
2022-08-19T16:10:28.599Z,32.36
2022-08-19T16:15:33.661Z,33.36
2022-08-19T16:20:37.171Z,34.00
2022-08-19T16:25:42.178Z,33.58
2022-08-19T16:30:48.506Z,34.36
2022-08-19T16:36:00.306Z,32.22
2022-08-19T16:41:14.352Z,33.48
2022-08-19T16:46:18.554Z,32.37
2022-08-19T16:51:22.682Z,33.46
2022-08-19T16:56:28.891Z,33.85
2022-08-19T17:01:32.555Z,34.02
2022-08-19T17:06:37.456Z,34.30
2022-08-19T17:11:42.274Z,33.50
2022-08-19T17:16:45.802Z,33.16
2022-08-19T17:21:49.217Z,33.02
2022-08-19T17:26:54.024Z,32.15
2022-08-19T17:31:57.480Z,31.82
2022-08-19T17:37:00.914Z,32.08
2022-08-19T17:42:06.163Z,31.88
2022-08-19T17:47:12.582Z,31.50
2022-08-19T17:52:16.195Z,31.67
2022-08-19T17:57:20.975Z,31.15
2022-08-19T18:02:24.574Z,31.84
2022-08-19T18:07:28.219Z,31.83
2022-08-19T18:12:33.748Z,31.57
2022-08-19T18:17:37.604Z,31.68
2022-08-19T18:22:42.947Z,31.40
2022-08-19T18:27:47.820Z,31.39
2022-08-19T18:32:52.635Z,31.12
2022-08-19T18:37:57.220Z,30.68
2022-08-19T18:43:19.393Z,30.52
2022-08-19T18:48:40.682Z,30.22
2022-08-19T18:53:46.534Z,30.36
2022-08-19T18:58:51.293Z,30.42
2022-08-19T19:03:55.590Z,30.03
2022-08-19T19:08:59.895Z,30.03
2022-08-19T19:14:10.343Z,29.96
2022-08-19T19:19:14.337Z,30.14
2022-08-19T19:24:27.235Z,29.71
2022-08-19T19:29:32.091Z,29.68
2022-08-19T19:34:37.886Z,29.41
2022-08-19T19:39:46.457Z,29.24
2022-08-19T19:44:54.747Z,28.99
2022-08-19T19:50:13.752Z,28.80
2022-08-19T19:55:18.856Z,28.58
2022-08-19T20:00:23.747Z,28.62
2022-08-19T20:05:27.447Z,28.60
2022-08-19T20:10:32.252Z,28.40
2022-08-19T20:15:42.340Z,28.26
2022-08-19T20:20:50.142Z,28.25
2022-08-19T20:25:54.296Z,28.11
2022-08-19T20:30:59.180Z,28.14
2022-08-19T20:36:03.075Z,28.15
2022-08-19T20:41:07.439Z,27.94
2022-08-19T20:46:12.535Z,27.85
2022-08-19T20:51:16.714Z,27.96
2022-08-19T20:56:20.304Z,27.81
2022-08-19T21:01:25.379Z,27.65
2022-08-19T21:06:28.963Z,27.63
2022-08-19T21:11:33.127Z,27.58
2022-08-19T21:16:37.958Z,27.53
2022-08-19T21:21:41.464Z,27.48
2022-08-19T21:26:49.392Z,27.34
2022-08-19T21:31:55.951Z,27.13
2022-08-19T21:36:59.450Z,27.04
2022-08-19T21:42:02.940Z,26.89
2022-08-19T21:47:08.111Z,27.09
2022-08-19T21:52:14.317Z,26.97
2022-08-19T21:57:18.033Z,26.78
2022-08-19T22:02:22.839Z,26.78
2022-08-19T22:07:26.442Z,26.64
2022-08-19T22:12:31.659Z,26.68
2022-08-19T22:17:37.808Z,26.61
2022-08-19T22:22:47.282Z,26.48
2022-08-19T22:27:51.012Z,26.38
2022-08-19T22:33:02.155Z,26.36
2022-08-19T22:38:07.157Z,26.41
2022-08-19T22:43:15.003Z,26.44
2022-08-19T22:48:22.979Z,26.38
2022-08-19T22:53:28.039Z,26.41
2022-08-19T22:58:31.544Z,26.03
2022-08-19T23:03:36.671Z,26.06
2022-08-19T23:08:40.099Z,26.07
2022-08-19T23:13:43.667Z,26.02
2022-08-19T23:18:48.421Z,25.91
2022-08-19T23:23:52.012Z,25.80
2022-08-19T23:29:13.034Z,25.72
2022-08-19T23:34:17.962Z,25.65
2022-08-19T23:39:21.418Z,25.69
2022-08-19T23:44:25.245Z,25.51
2022-08-19T23:49:31.310Z,25.66
2022-08-19T23:54:43.750Z,25.57
2022-08-19T23:59:47.517Z,25.46
